createdAt,value
2018-07-05T00:02:25.491Z,98671.47
2018-07-05T00:05:05.240Z,98673.58
2018-07-05T00:07:44.661Z,98668.49
2018-07-05T00:10:24.472Z,98677.39
2018-07-05T00:13:04.254Z,98673.26
2018-07-05T00:15:43.955Z,98648.55
2018-07-05T00:18:23.389Z,98678.67
2018-07-05T00:21:02.956Z,98678.97
2018-07-05T00:23:42.496Z,98660.73
2018-07-05T00:26:22.447Z,98660.00
2018-07-05T00:29:01.798Z,98670.20
2018-07-05T00:31:41.721Z,98661.61
2018-07-05T00:34:21.062Z,98640.45
2018-07-05T00:37:00.808Z,98653.75
2018-07-05T00:39:40.552Z,98649.16
2018-07-05T00:42:19.887Z,98624.72
2018-07-05T00:44:59.539Z,98654.27
2018-07-05T00:47:39.132Z,98650.67
2018-07-05T00:50:18.597Z,98654.84
2018-07-05T00:52:57.611Z,98646.63
2018-07-05T00:55:37.149Z,98644.55
2018-07-05T00:58:16.410Z,98649.36
2018-07-05T01:00:55.495Z,98644.83
2018-07-05T01:03:34.961Z,98652.58
2018-07-05T01:06:16.771Z,98651.91
2018-07-05T01:08:56.142Z,98653.69
2018-07-05T01:11:35.444Z,98656.96
2018-07-05T01:14:16.191Z,98650.73
2018-07-05T01:16:55.407Z,98671.79
2018-07-05T01:19:35.379Z,98645.45
2018-07-05T01:22:14.764Z,98651.29
2018-07-05T01:24:54.895Z,98652.31
2018-07-05T01:27:37.990Z,98660.31
2018-07-05T01:30:19.531Z,98657.85
2018-07-05T01:32:59.094Z,98650.10
2018-07-05T01:35:39.080Z,98663.59
2018-07-05T01:38:18.617Z,98654.53
2018-07-05T01:40:58.147Z,98648.00
2018-07-05T01:43:37.587Z,98644.89
2018-07-05T01:46:17.014Z,98646.08
2018-07-05T01:48:56.304Z,98646.73
2018-07-05T01:51:35.918Z,98648.52
2018-07-05T01:54:15.455Z,98659.58
2018-07-05T01:56:54.463Z,98649.12
2018-07-05T01:59:34.004Z,98649.30
2018-07-05T02:02:13.490Z,98655.89
2018-07-05T02:04:52.772Z,98657.76
2018-07-05T02:07:32.415Z,98658.61
2018-07-05T02:10:12.082Z,98657.64
2018-07-05T02:12:51.688Z,98654.61
2018-07-05T02:15:31.051Z,98651.49
2018-07-05T02:18:10.766Z,98656.56
2018-07-05T02:20:49.844Z,98660.63
2018-07-05T02:23:29.254Z,98648.47
2018-07-05T02:26:08.579Z,98640.16
2018-07-05T02:28:48.030Z,98649.73
2018-07-05T02:31:27.367Z,98636.58
2018-07-05T02:34:11.045Z,98643.50
2018-07-05T02:36:50.702Z,98644.15
2018-07-05T02:39:35.937Z,98643.47
2018-07-05T02:42:15.043Z,98639.20
2018-07-05T02:44:55.303Z,98601.11
2018-07-05T02:47:34.628Z,98635.49
2018-07-05T02:50:14.636Z,98631.70
2018-07-05T02:52:54.143Z,98633.02
2018-07-05T02:55:33.863Z,98614.03
2018-07-05T02:58:13.416Z,98626.31
2018-07-05T03:00:53.049Z,98621.39
2018-07-05T03:03:32.325Z,98622.59
2018-07-05T03:06:11.925Z,98605.38
2018-07-05T03:08:51.451Z,98625.09
2018-07-05T03:11:30.810Z,98624.36
2018-07-05T03:14:10.110Z,98624.16
2018-07-05T03:16:49.373Z,98629.59
2018-07-05T03:19:28.800Z,98609.09
2018-07-05T03:22:08.036Z,98634.03
2018-07-05T03:24:47.567Z,98638.17
2018-07-05T03:27:26.812Z,98633.26
2018-07-05T03:30:06.583Z,98642.85
2018-07-05T03:32:46.119Z,98650.38
2018-07-05T03:35:25.745Z,98648.55
2018-07-05T03:38:04.680Z,98648.63
2018-07-05T03:40:44.327Z,98652.27
2018-07-05T03:43:23.438Z,98665.75
2018-07-05T03:46:03.070Z,98661.04
2018-07-05T03:48:44.825Z,98666.95
2018-07-05T03:51:24.741Z,98669.69
2018-07-05T03:54:03.851Z,98666.09
2018-07-05T03:56:43.307Z,98670.97
2018-07-05T03:59:22.851Z,98682.66
2018-07-05T04:02:02.182Z,98664.68
2018-07-05T04:04:41.379Z,98671.19
2018-07-05T04:07:20.708Z,98664.72
2018-07-05T04:10:00.071Z,98649.70
2018-07-05T04:12:40.565Z,98660.02
2018-07-05T04:15:20.093Z,98660.14
2018-07-05T04:17:59.911Z,98653.94
2018-07-05T04:20:39.258Z,98656.67
2018-07-05T04:23:18.912Z,98672.52
2018-07-05T04:25:58.311Z,98649.58
2018-07-05T04:28:38.098Z,98668.22
2018-07-05T04:31:17.415Z,98665.75
2018-07-05T04:33:56.961Z,98672.93
2018-07-05T04:36:36.178Z,98667.67
2018-07-05T04:39:15.914Z,98666.11
2018-07-05T04:41:55.282Z,98648.45
2018-07-05T04:44:35.007Z,98660.53
2018-07-05T04:47:14.076Z,98664.25
2018-07-05T04:49:53.702Z,98669.55
2018-07-05T04:52:33.024Z,98664.84
2018-07-05T04:55:12.444Z,98659.02
2018-07-05T04:57:51.767Z,98667.02
2018-07-05T05:00:31.344Z,98680.06
2018-07-05T05:03:10.866Z,98673.77
2018-07-05T05:05:50.322Z,98676.71
2018-07-05T05:08:29.283Z,98677.33
2018-07-05T05:11:08.792Z,98672.27
2018-07-05T05:13:48.012Z,98681.84
2018-07-05T05:16:27.762Z,98674.32
2018-07-05T05:19:07.618Z,98678.77
2018-07-05T05:21:47.040Z,98680.11
2018-07-05T05:24:26.263Z,98675.92
2018-07-05T05:27:05.412Z,98664.31
2018-07-05T05:29:44.746Z,98670.15
2018-07-05T05:32:23.784Z,98645.97
2018-07-05T05:35:03.068Z,98668.77
2018-07-05T05:37:42.242Z,98674.64
2018-07-05T05:40:21.448Z,98665.95
2018-07-05T05:43:00.687Z,98684.39
2018-07-05T05:45:40.555Z,98675.44
2018-07-05T05:48:19.711Z,98677.34
2018-07-05T05:50:59.648Z,98675.66
2018-07-05T05:53:38.748Z,98673.12
2018-07-05T05:56:18.434Z,98672.56
2018-07-05T05:58:58.188Z,98667.98
2018-07-05T06:01:37.896Z,98648.41
2018-07-05T06:04:17.230Z,98684.59
2018-07-05T06:06:56.658Z,98693.66
2018-07-05T06:09:35.929Z,98681.27
2018-07-05T06:12:15.406Z,98667.67
2018-07-05T06:14:54.576Z,98679.08
2018-07-05T06:17:33.788Z,98669.66
2018-07-05T06:20:12.947Z,98665.26
2018-07-05T06:22:54.368Z,98670.08
2018-07-05T06:25:34.064Z,98670.80
2018-07-05T06:28:13.688Z,98668.11
2018-07-05T06:30:53.277Z,98656.11
2018-07-05T06:33:33.689Z,98667.39
2018-07-05T06:36:12.858Z,98666.94
2018-07-05T06:38:54.541Z,98661.98
2018-07-05T06:41:34.071Z,98667.72
2018-07-05T06:44:14.140Z,98667.38
2018-07-05T06:46:53.280Z,98666.63
2018-07-05T06:49:32.895Z,98673.41
2018-07-05T06:52:12.355Z,98637.68
2018-07-05T06:54:51.840Z,98669.20
2018-07-05T06:57:31.318Z,98670.14
2018-07-05T07:00:11.159Z,98683.35
2018-07-05T07:02:50.290Z,98665.52
2018-07-05T07:05:30.150Z,98671.25
2018-07-05T07:08:09.764Z,98680.30
2018-07-05T07:10:49.740Z,98675.42
2018-07-05T07:13:28.783Z,98679.34
2018-07-05T07:16:08.928Z,98670.06
2018-07-05T07:18:48.116Z,98663.84
2018-07-05T07:21:27.756Z,98662.39
2018-07-05T07:24:06.831Z,98654.64
2018-07-05T07:26:47.429Z,98653.81
2018-07-05T07:29:26.587Z,98649.36
2018-07-05T07:32:05.748Z,98646.39
2018-07-05T07:34:44.921Z,98644.39
2018-07-05T07:37:25.534Z,98647.76
2018-07-05T07:40:06.448Z,98635.01
2018-07-05T07:42:33.758Z,98644.92
2018-07-05T07:45:01.137Z,98647.89
2018-07-05T07:47:27.944Z,98648.88
2018-07-05T07:49:55.309Z,98642.19
2018-07-05T07:52:22.637Z,98642.28
2018-07-05T07:54:49.819Z,98643.13
2018-07-05T07:59:48.268Z,98648.11
2018-07-05T08:02:15.172Z,98648.92
2018-07-05T08:04:42.379Z,98631.22
2018-07-05T08:07:09.229Z,98609.86
2018-07-05T08:09:35.946Z,98641.14
2018-07-05T08:12:03.173Z,98633.81
2018-07-05T08:14:29.997Z,98632.14
2018-07-05T08:16:56.823Z,98624.70
2018-07-05T08:19:23.967Z,98623.77
2018-07-05T08:21:50.681Z,98623.08
2018-07-05T08:24:17.448Z,98618.83
2018-07-05T08:26:44.825Z,98614.92
2018-07-05T08:29:11.507Z,98607.80
2018-07-05T08:31:38.301Z,98622.66
2018-07-05T08:34:05.873Z,98614.00
2018-07-05T08:36:32.802Z,98612.73
2018-07-05T08:38:59.484Z,98620.44
2018-07-05T08:41:26.558Z,98605.97
2018-07-05T08:43:54.715Z,98603.66
2018-07-05T08:46:21.436Z,98604.25
2018-07-05T08:48:48.360Z,98601.83
2018-07-05T08:51:16.907Z,98604.66
2018-07-05T08:53:43.975Z,98601.02
2018-07-05T08:56:11.144Z,98605.61
2018-07-05T08:58:38.081Z,98609.27
2018-07-05T09:01:04.927Z,98597.52
2018-07-05T09:03:31.660Z,98595.59
2018-07-05T09:05:58.435Z,98586.75
2018-07-05T09:08:25.525Z,98599.78
2018-07-05T09:10:53.237Z,98601.38
2018-07-05T09:13:20.753Z,98594.75
2018-07-05T09:15:47.728Z,98593.14
2018-07-05T09:18:14.613Z,98584.77
2018-07-05T09:20:42.020Z,98587.16
2018-07-05T09:23:08.893Z,98575.98
2018-07-05T09:25:37.010Z,98570.66
2018-07-05T09:28:04.151Z,98600.33
2018-07-05T09:30:31.451Z,98587.00
2018-07-05T09:32:59.828Z,98585.44
2018-07-05T09:35:26.941Z,98587.65
2018-07-05T09:37:53.844Z,98575.13
2018-07-05T09:40:21.460Z,98589.34
2018-07-05T09:42:48.693Z,98590.59
2018-07-05T09:45:15.412Z,98582.37
2018-07-05T09:47:42.486Z,98574.40
2018-07-05T09:50:09.459Z,98589.20
2018-07-05T09:52:36.261Z,98583.75
2018-07-05T09:55:03.452Z,98579.89
2018-07-05T09:57:30.191Z,98578.77
2018-07-05T09:59:56.937Z,98581.89
2018-07-05T10:02:24.027Z,98581.92
2018-07-05T10:04:51.735Z,98576.49
2018-07-05T10:07:18.578Z,98523.13
2018-07-05T10:09:45.622Z,98580.73
2018-07-05T10:12:12.331Z,98573.05
2018-07-05T10:14:39.210Z,98572.45
2018-07-05T10:17:10.777Z,98570.16
2018-07-05T10:19:37.901Z,98572.28
2018-07-05T10:22:05.318Z,98572.95
2018-07-05T10:24:32.412Z,98569.98
2018-07-05T10:26:59.173Z,98569.07
2018-07-05T10:29:39.620Z,98562.73
2018-07-05T10:32:19.966Z,98563.23
2018-07-05T10:34:46.866Z,98552.64
2018-07-05T10:37:29.547Z,98540.86
2018-07-05T10:40:14.009Z,98547.59
2018-07-05T10:42:54.404Z,98543.39
2018-07-05T10:45:34.954Z,98551.33
2018-07-05T10:48:15.125Z,98539.73
2018-07-05T10:50:56.116Z,98543.13
2018-07-05T10:53:35.215Z,98543.11
2018-07-05T10:56:16.378Z,98535.83
2018-07-05T10:58:55.647Z,98535.94
2018-07-05T11:01:35.171Z,98540.28
2018-07-05T11:04:14.607Z,98532.94
2018-07-05T11:06:57.883Z,98536.48
2018-07-05T11:09:39.134Z,98534.36
2018-07-05T11:12:23.286Z,98523.94
2018-07-05T11:15:03.948Z,98525.31
2018-07-05T11:17:44.735Z,98509.88
2018-07-05T11:20:24.198Z,98515.08
2018-07-05T11:23:03.883Z,98509.17
2018-07-05T11:25:45.487Z,98508.42
2018-07-05T11:28:27.271Z,98427.48
2018-07-05T11:31:06.384Z,98506.11
2018-07-05T11:33:45.604Z,98503.17
2018-07-05T11:36:25.401Z,98493.98
2018-07-05T11:39:05.807Z,98487.27
2018-07-05T11:41:45.458Z,98493.28
2018-07-05T11:44:25.019Z,98482.09
2018-07-05T11:47:06.815Z,98485.69
2018-07-05T11:49:50.079Z,98484.97
2018-07-05T11:52:29.364Z,98484.58
2018-07-05T11:55:09.557Z,98483.47
2018-07-05T11:57:48.681Z,98480.27
2018-07-05T12:00:28.037Z,98478.58
2018-07-05T12:03:07.099Z,98471.52
2018-07-05T12:05:46.861Z,98456.67
2018-07-05T12:08:25.948Z,98462.84
2018-07-05T12:11:05.452Z,98470.75
2018-07-05T12:13:44.980Z,98468.33
2018-07-05T12:16:24.536Z,98461.84
2018-07-05T12:19:03.968Z,98452.23
2018-07-05T12:21:44.098Z,98462.91
2018-07-05T12:24:23.378Z,98469.39
2018-07-05T12:27:05.799Z,98458.38
2018-07-05T12:29:45.284Z,98455.59
2018-07-05T12:32:24.574Z,98468.33
2018-07-05T12:35:03.793Z,98471.95
2018-07-05T12:37:43.120Z,98462.53
2018-07-05T12:40:22.655Z,98450.48
2018-07-05T12:43:02.885Z,98438.67
2018-07-05T12:45:42.325Z,98457.57
2018-07-05T12:48:23.032Z,98458.98
2018-07-05T12:51:02.375Z,98404.04
2018-07-05T12:53:41.490Z,98464.62
2018-07-05T12:56:20.404Z,98470.48
2018-07-05T12:58:59.777Z,98444.28
2018-07-05T13:01:38.838Z,98471.16
2018-07-05T13:04:18.713Z,98483.97
2018-07-05T13:06:57.717Z,98499.06
2018-07-05T13:09:37.176Z,98492.47
2018-07-05T13:12:16.324Z,98487.20
2018-07-05T13:14:55.831Z,98492.86
2018-07-05T13:17:35.690Z,98487.25
2018-07-05T13:20:17.544Z,98479.31
2018-07-05T13:23:01.377Z,98480.14
2018-07-05T13:25:40.890Z,98486.06
2018-07-05T13:28:20.639Z,98494.84
2018-07-05T13:30:59.737Z,98477.29
2018-07-05T13:33:39.415Z,98485.23
2018-07-05T13:36:19.516Z,98469.80
2018-07-05T13:38:58.956Z,98473.02
2018-07-05T13:41:38.057Z,98486.72
2018-07-05T13:44:17.332Z,98476.05
2018-07-05T13:47:00.482Z,98477.95
2018-07-05T13:49:39.916Z,98489.66
2018-07-05T13:52:19.620Z,98473.97
2018-07-05T13:54:59.662Z,98472.62
2018-07-05T13:57:41.499Z,98467.31
2018-07-05T14:00:21.265Z,98476.00
2018-07-05T14:03:02.090Z,98465.84
2018-07-05T14:05:42.249Z,98491.41
2018-07-05T14:08:22.372Z,98473.80
2018-07-05T14:11:02.430Z,98487.41
2018-07-05T14:13:42.240Z,98481.09
2018-07-05T14:16:21.322Z,98487.70
2018-07-05T14:19:00.902Z,98487.38
2018-07-05T14:21:39.927Z,98488.45
2018-07-05T14:24:19.158Z,98495.16
2018-07-05T14:26:59.315Z,98464.07
2018-07-05T14:29:41.536Z,98484.39
2018-07-05T14:32:20.974Z,98489.40
2018-07-05T14:35:02.192Z,98496.91
2018-07-05T14:37:43.104Z,98472.41
2018-07-05T14:40:22.731Z,98473.06
2018-07-05T14:43:05.481Z,98490.95
2018-07-05T14:45:46.212Z,98481.61
2018-07-05T14:48:26.166Z,98458.36
2018-07-05T14:51:05.643Z,98466.21
2018-07-05T14:53:45.127Z,98468.17
2018-07-05T14:56:24.419Z,98478.28
2018-07-05T14:59:08.429Z,98486.35
2018-07-05T15:01:49.742Z,98482.29
2018-07-05T15:04:32.055Z,98476.92
2018-07-05T15:07:12.373Z,98481.87
2018-07-05T15:09:53.221Z,98476.14
2018-07-05T15:12:32.653Z,98488.29
2018-07-05T15:15:12.841Z,98498.55
2018-07-05T15:17:52.523Z,98493.21
2018-07-05T15:20:34.749Z,98488.81
2018-07-05T15:23:14.289Z,98486.61
2018-07-05T15:25:54.130Z,98493.92
2018-07-05T15:28:33.385Z,98475.14
2018-07-05T15:31:13.190Z,98487.56
2018-07-05T15:33:55.994Z,98482.70
2018-07-05T15:36:36.132Z,98480.34
2018-07-05T15:39:15.176Z,98471.09
2018-07-05T15:41:56.232Z,98423.67
2018-07-05T15:44:35.740Z,98438.63
2018-07-05T15:47:16.122Z,98469.49
2018-07-05T15:49:57.136Z,98467.80
2018-07-05T15:52:36.873Z,98476.56
2018-07-05T15:55:17.110Z,98475.61
2018-07-05T15:58:02.600Z,98483.81
2018-07-05T16:00:42.957Z,98499.33
2018-07-05T16:03:24.482Z,98539.33
2018-07-05T16:06:03.907Z,98493.27
2018-07-05T16:08:43.156Z,98516.94
2018-07-05T16:11:22.524Z,98515.28
2018-07-05T16:14:02.346Z,98531.94
2018-07-05T16:16:42.022Z,98520.51
2018-07-05T16:19:23.957Z,98522.30
2018-07-05T16:22:04.552Z,98522.83
2018-07-05T16:24:44.272Z,98504.86
2018-07-05T16:27:23.669Z,98519.59
2018-07-05T16:30:04.453Z,98508.99
2018-07-05T16:32:43.723Z,98518.14
2018-07-05T16:35:23.923Z,98519.09
2018-07-05T16:38:04.263Z,98523.02
2018-07-05T16:40:43.783Z,98538.91
2018-07-05T16:43:23.594Z,98555.66
2018-07-05T16:46:05.586Z,98569.88
2018-07-05T16:48:48.329Z,98581.41
2018-07-05T16:51:33.876Z,98559.24
2018-07-05T16:57:05.712Z,98573.29
2018-07-05T16:59:46.378Z,98584.10
2018-07-05T17:02:26.945Z,98575.47
2018-07-05T17:05:08.148Z,98602.98
2018-07-05T17:07:48.384Z,98602.72
2018-07-05T17:10:29.211Z,98610.04
2018-07-05T17:13:14.251Z,98612.38
2018-07-05T17:15:55.051Z,98608.68
2018-07-05T17:18:35.339Z,98616.56
2018-07-05T17:21:14.778Z,98634.25
2018-07-05T17:23:54.664Z,98635.47
2018-07-05T17:26:34.565Z,98640.46
2018-07-05T17:29:14.411Z,98646.17
2018-07-05T17:31:54.728Z,98645.80
2018-07-05T17:34:34.976Z,98664.89
2018-07-05T17:37:15.738Z,98668.47
2018-07-05T17:39:54.816Z,98685.20
2018-07-05T17:42:34.549Z,98684.63
2018-07-05T17:45:14.010Z,98680.05
2018-07-05T17:47:53.807Z,98707.27
2018-07-05T17:50:34.918Z,98700.63
2018-07-05T17:53:17.365Z,98691.28
2018-07-05T17:55:56.855Z,98684.41
2018-07-05T17:58:39.810Z,98685.85
2018-07-05T18:01:19.491Z,98628.22
2018-07-05T18:03:59.190Z,98680.09
2018-07-05T18:06:38.235Z,98646.61
2018-07-05T18:09:18.061Z,98666.94
2018-07-05T18:11:57.531Z,98683.67
2018-07-05T18:14:38.755Z,98669.41
2018-07-05T18:17:23.452Z,98702.72
2018-07-05T18:20:05.525Z,98710.92
2018-07-05T18:22:45.282Z,98722.16
2018-07-05T18:25:24.327Z,98728.73
2018-07-05T18:28:03.308Z,98725.28
2018-07-05T18:30:42.419Z,98732.34
2018-07-05T18:33:21.980Z,98729.14
2018-07-05T18:36:06.626Z,98729.11
2018-07-05T18:38:53.879Z,98729.21
2018-07-05T18:41:33.432Z,98733.23
2018-07-05T18:44:13.570Z,98728.17
2018-07-05T18:46:52.872Z,98735.59
2018-07-05T18:49:34.196Z,98729.05
2018-07-05T18:52:14.908Z,98730.63
2018-07-05T18:54:58.345Z,98727.80
2018-07-05T18:57:39.015Z,98723.30
2018-07-05T19:00:19.490Z,98728.20
2018-07-05T19:03:00.420Z,98725.38
2018-07-05T19:05:43.179Z,98719.53
2018-07-05T19:08:25.662Z,98662.18
2018-07-05T19:11:07.906Z,98722.70
2018-07-05T19:13:46.981Z,98722.05
2018-07-05T19:16:28.184Z,98729.00
2018-07-05T19:19:09.262Z,98722.71
2018-07-05T19:21:50.927Z,98697.90
2018-07-05T19:24:30.537Z,98726.53
2018-07-05T19:27:14.205Z,98732.86
2018-07-05T19:29:55.242Z,98729.83
2018-07-05T19:32:39.808Z,98729.91
2018-07-05T19:35:20.966Z,98732.86
2018-07-05T19:38:10.192Z,98735.23
2018-07-05T19:40:50.525Z,98700.45
2018-07-05T19:43:29.930Z,98710.46
2018-07-05T19:46:12.051Z,98738.06
2018-07-05T19:48:53.467Z,98743.55
2018-07-05T19:51:32.633Z,98746.00
2018-07-05T19:54:14.616Z,98749.51
2018-07-05T19:56:54.578Z,98745.63
2018-07-05T19:59:35.303Z,98743.93
2018-07-05T20:02:14.872Z,98754.80
2018-07-05T20:04:56.104Z,98684.69
2018-07-05T20:07:35.133Z,98748.83
2018-07-05T20:10:16.131Z,98761.96
2018-07-05T20:12:55.419Z,98762.26
2018-07-05T20:15:34.852Z,98763.21
2018-07-05T20:18:15.185Z,98770.19
2018-07-05T20:20:58.147Z,98773.70
2018-07-05T20:23:39.028Z,98766.89
2018-07-05T20:26:20.307Z,98772.16
2018-07-05T20:29:02.849Z,98781.61
2018-07-05T20:31:42.369Z,98786.04
2018-07-05T20:34:21.614Z,98798.05
2018-07-05T20:37:06.170Z,98803.99
2018-07-05T20:39:49.198Z,98795.86
2018-07-05T20:42:30.287Z,98799.53
2018-07-05T20:45:09.779Z,98795.28
2018-07-05T20:47:50.089Z,98784.80
2018-07-05T20:50:29.869Z,98785.30
2018-07-05T20:53:10.568Z,98792.00
2018-07-05T20:55:51.526Z,98795.86
2018-07-05T20:58:31.795Z,98801.06
2018-07-05T21:01:11.740Z,98686.60
2018-07-05T21:03:55.012Z,98803.23
2018-07-05T21:06:34.856Z,98813.61
2018-07-05T21:09:14.962Z,98801.70
2018-07-05T21:11:55.846Z,98811.52
2018-07-05T21:14:37.898Z,98815.77
2018-07-05T21:17:17.781Z,98814.08
2018-07-05T21:19:57.534Z,98809.06
2018-07-05T21:22:37.824Z,98808.69
2018-07-05T21:25:17.305Z,98811.52
2018-07-05T21:27:56.393Z,98811.16
2018-07-05T21:30:35.864Z,98810.31
2018-07-05T21:33:15.193Z,98811.61
2018-07-05T21:35:54.402Z,98809.27
2018-07-05T21:38:33.657Z,98811.99
2018-07-05T21:41:12.842Z,98810.53
2018-07-05T21:43:52.588Z,98808.72
2018-07-05T21:46:31.713Z,98802.44
2018-07-05T21:49:11.915Z,98810.50
2018-07-05T21:51:51.081Z,98817.46
2018-07-05T21:54:30.729Z,98817.09
2018-07-05T21:57:09.872Z,98826.33
2018-07-05T21:59:49.513Z,98818.87
2018-07-05T22:02:30.289Z,98811.41
2018-07-05T22:05:12.657Z,98811.20
2018-07-05T22:07:53.365Z,98810.06
2018-07-05T22:10:32.815Z,98802.20
2018-07-05T22:13:12.137Z,98790.90
2018-07-05T22:15:52.192Z,98798.18
2018-07-05T22:20:38.423Z,98796.86
2018-07-05T22:23:23.379Z,98795.41
2018-07-05T22:26:08.292Z,98791.23
2018-07-05T22:28:53.486Z,98790.77
2018-07-05T22:31:33.966Z,98808.30
2018-07-05T22:34:14.020Z,98783.19
2018-07-05T22:36:53.168Z,98788.20
2018-07-05T22:39:33.233Z,98779.80
2018-07-05T22:42:12.648Z,98792.27
2018-07-05T22:44:52.457Z,98799.34
2018-07-05T22:47:32.704Z,98798.48
2018-07-05T22:50:12.499Z,98792.03
2018-07-05T22:52:52.334Z,98792.52
2018-07-05T22:55:32.750Z,98795.05
2018-07-05T22:58:11.758Z,98801.53
2018-07-05T23:00:51.341Z,98796.37
2018-07-05T23:03:30.765Z,98814.53
2018-07-05T23:06:10.806Z,98809.98
2018-07-05T23:08:49.920Z,98812.81
2018-07-05T23:11:29.087Z,98817.23
2018-07-05T23:14:08.873Z,98820.33
2018-07-05T23:16:48.352Z,98809.48
2018-07-05T23:19:28.134Z,98814.20
2018-07-05T23:22:07.251Z,98816.64
2018-07-05T23:24:47.267Z,98813.44
2018-07-05T23:27:26.328Z,98818.63
2018-07-05T23:30:06.259Z,98820.18
2018-07-05T23:32:45.716Z,98816.97
2018-07-05T23:35:26.025Z,98867.27
2018-07-05T23:38:05.410Z,98826.98
2018-07-05T23:40:44.836Z,98831.02
2018-07-05T23:43:24.283Z,98840.97
2018-07-05T23:46:04.028Z,98837.81
2018-07-05T23:48:42.949Z,98832.42
2018-07-05T23:51:22.470Z,98843.56
2018-07-05T23:54:01.855Z,98837.17
